• Join FlightAware (Why Join?)
  • Login
  • US Flag 
01:56AM EDT


 

Airport Tracker/Info


-or-


 

Live Flight TrackerFlight Track Log ✈ N646BD ✈ 26-Oct-2013 ✈ KTYS - KRYY

Flight Track Log - Related Links

Times and Time Zones

All times are in EDT time to prevent confusion due to time zone crossing. See the N646BD flight status page for this flight to view local times or setup timezone preferences in your user account.

Time Position Orientation Groundspeed Altitude Reporting Facility
EDT Latitude Longitude Course Direction KTS MPH feet Rate Location/Type
12:56PM 35.7642 -84.0439 175° South 89 102 3,700  Level Atlanta Center
12:57PM 35.7369 -84.0361 167° South 103 119 4,700 1,020 Climbing Atlanta Center
12:58PM 35.7058 -84.0311 173° South 108 124 5,800 3,120 Climbing Atlanta Center
12:59PM 35.6725 -84.0261 173° South 119 137 11,000 1,020 Climbing Atlanta Center
01:00PM 35.5070 -84.0979 175° South  Level Estimated
01:00PM 35.6369 -84.0208 173° South 124 143 7,900  Level Atlanta Center
01:01PM 35.5994 -84.0158 174° South 129 148 8,900 960 Climbing Atlanta Center
01:02PM 35.5617 -84.0106 174° South 134 154 9,900 480 Climbing Atlanta Center
01:03PM 35.5139 -84.0006 170° South 148 170 9,900  Level Atlanta Center
01:04PM 35.4658 -83.9956 175° South 169 194 9,900  Level Atlanta Center
01:05PM 35.4219 -83.9878 172° South 182 209 9,900 120 Level Atlanta Center
01:06PM 35.3656 -83.9803 174° South 187 215 10,200 360 Climbing Atlanta Center
01:07PM 35.3136 -83.9725 173° South 194 223 10,700 300 Climbing Atlanta Center
01:08PM 35.2656 -83.9625 170° South 194 223 10,900 60 Climbing Atlanta Center
01:09PM 35.2114 -83.9575 176° South 194 223 10,900  Level Atlanta Center
01:10PM 35.1569 -83.9472 171° South 199 229 10,900  Level Atlanta Center
01:11PM 35.1028 -83.9422 176° South 199 229 10,900  Level Atlanta Center
01:12PM 35.0464 -83.9272 168° South 199 229 10,900  Level Atlanta Center
01:13PM 34.9942 -83.9247 178° South 199 229 10,900  Level Atlanta Center
01:14PM 34.9336 -83.9172 174° South 199 229 10,900  Level Atlanta Center
01:15PM 34.8858 -83.9197 182° South 199 229 11,000  Climbing Atlanta Center
01:16PM 34.8336 -83.9325 191° South 194 223 10,900 -60 Descending Atlanta Center
01:17PM 34.7856 -83.9453 192° South 194 223 10,900 -240 Level Atlanta Center
01:18PM 34.7292 -83.9631 195° South 199 229 10,500 -480 Descending Atlanta Center
01:19PM 34.6769 -83.9731 189° South 199 229 10,000 -600 Descending Atlanta Center
01:20PM 34.6144 -83.9883 191° South 205 236 9,400 -600 Descending Atlanta Center
01:21PM 34.5581 -84.0033 192° South 205 236 8,900 -600 Descending Atlanta Center
01:22PM 34.5081 -84.0186 194° South 205 236 8,300 -840 Descending Atlanta Center
01:23PM 34.4497 -84.0361 194° South 211 243 7,300 -960 Descending Atlanta Center
01:24PM 34.3911 -84.0514 192° South 222 255 6,400 -720 Descending Atlanta Center
01:25PM 34.3328 -84.0664 192° South 222 255 5,900 -240 Descending Atlanta Center
01:26PM 34.2972 -84.1042 221° Southwest 186 214 6,000 -180 Climbing Atlanta Center
01:27PM 34.2700 -84.1519 235° Southwest 175 201 5,600 -600 Descending Atlanta Center
01:28PM 34.2408 -84.2047 236° Southwest 186 214 4,800 -780 Descending Atlanta Center
01:29PM 34.2094 -84.2597 235° Southwest 186 214 4,100 -420 Descending Atlanta Center
01:30PM 34.1822 -84.3050 234° Southwest 180 207 4,000 -60 Descending Atlanta Center
01:31PM 34.1569 -84.3475 234° Southwest 170 196 4,000  Level Atlanta Center
01:32PM 34.1319 -84.3903 235° Southwest 170 196 4,000 -240 Level Atlanta Center
01:33PM 34.1067 -84.4353 236° Southwest 170 196 3,600 -480 Descending Atlanta Center
01:35PM 34.0167 -84.5167 217° Southwest 160 184 2,500 -600 Descending Atlanta TRACON
01:36PM 34.0167 -84.5500 270° West 136 157 1,600 -900 Descending Atlanta TRACON
01:38PM 34.0000 -84.5833 220° Southwest  Level FlightAware Approximate
01:45PM 34.0132 -84.5971 220° Southwest  Level Estimated